createdAt,value
2018-10-18T00:00:23.291Z,14.70
2018-10-18T00:02:51.476Z,14.70
2018-10-18T00:05:19.618Z,14.70
2018-10-18T00:07:47.786Z,14.70
2018-10-18T00:10:15.930Z,14.70
2018-10-18T00:12:44.079Z,14.70
2018-10-18T00:15:12.359Z,14.70
2018-10-18T00:17:47.478Z,14.80
2018-10-18T00:20:16.639Z,14.70
2018-10-18T00:22:45.281Z,14.70
2018-10-18T00:25:13.750Z,14.70
2018-10-18T00:27:41.921Z,14.70
2018-10-18T00:30:12.007Z,14.70
2018-10-18T00:32:40.453Z,14.70
2018-10-18T00:35:08.673Z,14.80
2018-10-18T00:37:37.271Z,14.70
2018-10-18T00:40:05.934Z,14.70
2018-10-18T00:42:34.134Z,14.70
2018-10-18T00:45:02.311Z,14.80
2018-10-18T00:47:30.477Z,14.80
2018-10-18T00:49:58.659Z,14.80
2018-10-18T00:52:26.779Z,14.80
2018-10-18T00:54:54.952Z,14.80
2018-10-18T00:57:23.110Z,14.80
2018-10-18T00:59:51.307Z,14.80
2018-10-18T01:02:19.499Z,14.80
2018-10-18T01:04:47.583Z,14.80
2018-10-18T01:07:15.810Z,14.80
2018-10-18T01:09:44.030Z,14.80
2018-10-18T01:12:12.246Z,14.80
2018-10-18T01:14:40.330Z,14.80
2018-10-18T01:17:08.472Z,14.80
2018-10-18T01:19:37.721Z,14.80
2018-10-18T01:22:06.911Z,14.80
2018-10-18T01:24:36.026Z,14.80
2018-10-18T01:27:04.351Z,14.80
2018-10-18T01:29:32.521Z,14.80
2018-10-18T01:32:00.688Z,14.90
2018-10-18T01:34:28.939Z,14.80
2018-10-18T01:36:57.126Z,14.80
2018-10-18T01:39:25.287Z,14.90
2018-10-18T01:41:53.473Z,15.00
2018-10-18T01:44:21.670Z,15.00
2018-10-18T01:46:49.851Z,15.10
2018-10-18T01:49:18.035Z,15.10
2018-10-18T01:51:46.198Z,15.20
2018-10-18T01:54:14.460Z,15.20
2018-10-18T01:56:42.527Z,15.20
2018-10-18T01:59:10.681Z,15.20
2018-10-18T02:01:38.844Z,15.30
2018-10-18T02:04:07.059Z,15.30
2018-10-18T02:06:35.230Z,15.40
2018-10-18T02:09:03.564Z,15.40
2018-10-18T02:11:31.720Z,15.50
2018-10-18T02:13:59.876Z,15.50
2018-10-18T02:16:28.102Z,15.60
2018-10-18T02:18:56.287Z,15.60
2018-10-18T02:21:24.421Z,15.50
2018-10-18T02:23:52.621Z,15.50
2018-10-18T02:26:20.767Z,15.50
2018-10-18T02:28:48.903Z,15.50
2018-10-18T02:31:17.059Z,15.50
2018-10-18T02:33:45.275Z,15.50
2018-10-18T02:36:13.498Z,15.50
2018-10-18T02:38:41.684Z,15.50
2018-10-18T02:41:09.838Z,15.50
2018-10-18T02:43:37.985Z,15.50
2018-10-18T02:46:06.151Z,15.50
2018-10-18T02:48:34.303Z,15.50
2018-10-18T02:51:02.488Z,15.50
2018-10-18T02:53:30.626Z,15.50
2018-10-18T02:55:58.781Z,15.50
2018-10-18T02:58:26.947Z,15.50
2018-10-18T03:00:55.123Z,15.50
2018-10-18T03:03:23.279Z,15.50
2018-10-18T03:05:51.423Z,15.50
2018-10-18T03:08:19.587Z,15.50
2018-10-18T03:10:47.795Z,15.50
2018-10-18T03:13:15.939Z,15.50
2018-10-18T03:15:44.095Z,15.50
2018-10-18T03:18:12.330Z,15.50
2018-10-18T03:20:40.494Z,15.50
2018-10-18T03:23:08.655Z,15.50
2018-10-18T03:25:36.849Z,15.50
2018-10-18T03:28:05.111Z,15.50
2018-10-18T03:30:33.278Z,15.50
2018-10-18T03:33:01.455Z,15.50
2018-10-18T03:35:29.598Z,15.50
2018-10-18T03:37:57.753Z,15.50
2018-10-18T03:40:25.910Z,15.50
2018-10-18T03:42:54.088Z,15.50
2018-10-18T03:45:22.247Z,15.50
2018-10-18T03:47:50.411Z,15.50
2018-10-18T03:50:18.571Z,15.50
2018-10-18T03:52:46.766Z,15.50
2018-10-18T03:55:14.947Z,15.50
2018-10-18T03:57:43.146Z,15.50
2018-10-18T04:00:11.361Z,15.50
2018-10-18T04:02:39.434Z,15.50
2018-10-18T04:05:08.403Z,15.50
2018-10-18T04:07:36.665Z,15.50
2018-10-18T04:10:05.318Z,15.50
2018-10-18T04:12:33.563Z,15.50
2018-10-18T04:15:01.694Z,15.50
2018-10-18T04:17:29.895Z,15.50
2018-10-18T04:19:58.034Z,15.50
2018-10-18T04:22:26.219Z,15.50
2018-10-18T04:24:54.382Z,15.50
2018-10-18T04:27:22.527Z,15.50
2018-10-18T04:29:50.703Z,15.50
2018-10-18T04:32:18.851Z,15.50
2018-10-18T04:34:47.079Z,15.50
2018-10-18T04:37:15.242Z,15.50
2018-10-18T04:39:43.367Z,15.50
2018-10-18T04:42:11.578Z,15.50
2018-10-18T04:44:39.754Z,15.50
2018-10-18T04:47:07.931Z,15.40
2018-10-18T04:49:36.079Z,15.50
2018-10-18T04:52:04.226Z,15.50
2018-10-18T04:54:32.418Z,15.50
2018-10-18T04:57:00.666Z,15.50
2018-10-18T04:59:28.750Z,15.50
2018-10-18T05:01:57.010Z,15.50
2018-10-18T05:04:25.150Z,15.40
2018-10-18T05:06:53.331Z,15.40
2018-10-18T05:09:21.479Z,15.50
2018-10-18T05:11:49.647Z,15.50
2018-10-18T05:14:17.796Z,15.50
2018-10-18T05:16:45.956Z,15.50
2018-10-18T05:19:14.214Z,15.50
2018-10-18T05:21:42.414Z,15.50
2018-10-18T05:24:10.584Z,15.50
2018-10-18T05:26:38.778Z,15.50
2018-10-18T05:29:06.936Z,15.50
2018-10-18T05:31:35.179Z,15.50
2018-10-18T05:34:03.293Z,15.50
2018-10-18T05:36:31.433Z,15.50
2018-10-18T05:38:59.588Z,15.50
2018-10-18T05:41:27.796Z,15.50
2018-10-18T05:43:55.971Z,15.50
2018-10-18T05:46:24.115Z,15.40
2018-10-18T05:48:52.313Z,15.40
2018-10-18T05:51:20.484Z,15.40
2018-10-18T05:53:48.781Z,15.30
2018-10-18T05:56:16.798Z,15.30
2018-10-18T05:58:44.954Z,15.20
2018-10-18T06:01:13.142Z,15.20
2018-10-18T06:03:41.236Z,15.20
2018-10-18T06:06:09.386Z,15.10
2018-10-18T06:08:37.563Z,15.00
2018-10-18T06:11:17.347Z,15.00
2018-10-18T06:13:45.527Z,14.90
2018-10-18T06:16:13.697Z,15.00
2018-10-18T06:18:41.895Z,14.90
2018-10-18T06:21:10.103Z,14.80
2018-10-18T06:23:38.239Z,14.80
2018-10-18T06:26:06.636Z,14.70
2018-10-18T06:28:34.834Z,14.70
2018-10-18T06:31:03.032Z,14.70
2018-10-18T06:33:31.212Z,14.70
2018-10-18T06:35:59.453Z,14.70
2018-10-18T06:38:27.615Z,14.80
2018-10-18T06:40:55.769Z,14.80
2018-10-18T06:43:23.919Z,14.80
2018-10-18T06:45:52.203Z,14.90
2018-10-18T06:48:20.373Z,14.90
2018-10-18T06:50:48.554Z,14.90
2018-10-18T06:53:16.698Z,15.00
2018-10-18T06:55:44.954Z,15.00
2018-10-18T06:58:13.098Z,15.00
2018-10-18T07:00:41.279Z,15.00
2018-10-18T07:03:09.462Z,15.00
2018-10-18T07:05:37.688Z,15.00
2018-10-18T07:08:05.838Z,15.10
2018-10-18T07:10:33.985Z,15.00
2018-10-18T07:13:02.267Z,15.10
2018-10-18T07:15:30.422Z,15.10
2018-10-18T07:17:58.585Z,15.10
2018-10-18T07:20:26.788Z,15.10
2018-10-18T07:22:54.979Z,15.10
2018-10-18T07:25:23.243Z,15.20
2018-10-18T07:27:51.327Z,15.20
2018-10-18T07:30:19.581Z,15.20
2018-10-18T07:32:47.657Z,15.30
2018-10-18T07:35:15.842Z,15.30
2018-10-18T07:37:43.990Z,15.30
2018-10-18T07:40:13.938Z,15.20
2018-10-18T07:42:42.147Z,15.30
2018-10-18T07:45:11.355Z,15.40
2018-10-18T07:47:39.652Z,15.40
2018-10-18T07:50:07.845Z,15.40
2018-10-18T07:52:36.406Z,15.40
2018-10-18T07:55:05.083Z,15.50
2018-10-18T07:57:33.234Z,15.50
2018-10-18T08:00:01.507Z,15.60
2018-10-18T08:02:29.566Z,15.80
2018-10-18T08:04:57.728Z,15.80
2018-10-18T08:07:25.915Z,15.80
2018-10-18T08:09:54.098Z,15.70
2018-10-18T08:12:22.219Z,15.70
2018-10-18T08:14:50.379Z,15.70
2018-10-18T08:17:18.549Z,15.70
2018-10-18T08:19:46.666Z,15.70
2018-10-18T08:22:14.793Z,15.80
2018-10-18T08:24:42.946Z,15.90
2018-10-18T08:27:11.157Z,16.00
2018-10-18T08:29:39.294Z,16.10
2018-10-18T08:32:07.447Z,16.10
2018-10-18T08:34:35.599Z,16.20
2018-10-18T08:37:03.839Z,16.20
2018-10-18T08:39:31.946Z,16.20
2018-10-18T08:42:00.091Z,16.10
2018-10-18T08:44:28.275Z,16.20
2018-10-18T08:46:56.370Z,16.50
2018-10-18T08:49:24.510Z,16.50
2018-10-18T08:51:52.642Z,16.50
2018-10-18T08:54:20.806Z,16.50
2018-10-18T08:56:49.006Z,16.50
2018-10-18T08:59:17.189Z,16.50
2018-10-18T09:01:45.571Z,16.60
2018-10-18T09:04:13.429Z,16.70
2018-10-18T09:06:41.590Z,16.80
2018-10-18T09:09:10.106Z,16.90
2018-10-18T09:11:38.219Z,17.00
2018-10-18T09:14:06.835Z,17.10
2018-10-18T09:16:34.969Z,17.20
2018-10-18T09:19:03.472Z,17.10
2018-10-18T09:21:31.628Z,17.10
2018-10-18T09:23:59.768Z,17.10
2018-10-18T09:26:27.913Z,17.30
2018-10-18T09:28:56.060Z,17.30
2018-10-18T09:31:24.243Z,17.50
2018-10-18T09:33:52.414Z,17.50
2018-10-18T09:36:20.591Z,17.60
2018-10-18T09:38:48.975Z,17.60
2018-10-18T09:41:17.159Z,17.70
2018-10-18T09:43:45.310Z,17.80
2018-10-18T09:46:13.457Z,17.80
2018-10-18T09:48:41.595Z,17.80
2018-10-18T09:51:09.769Z,17.90
2018-10-18T09:53:37.946Z,17.90
2018-10-18T09:56:06.142Z,18.00
2018-10-18T09:58:34.264Z,18.10
2018-10-18T10:01:07.905Z,18.10
2018-10-18T10:03:35.991Z,18.10
2018-10-18T10:06:04.215Z,18.10
2018-10-18T10:08:32.368Z,18.10
2018-10-18T10:11:00.518Z,18.20
2018-10-18T10:13:28.760Z,18.10
2018-10-18T10:15:56.819Z,18.10
2018-10-18T10:18:24.967Z,18.10
2018-10-18T10:20:53.106Z,18.10
2018-10-18T10:23:21.242Z,18.20
2018-10-18T10:25:49.384Z,18.20
2018-10-18T10:28:17.562Z,18.20
2018-10-18T10:30:45.738Z,18.20
2018-10-18T10:33:13.902Z,18.10
2018-10-18T10:35:42.051Z,18.10
2018-10-18T10:38:10.143Z,18.10
2018-10-18T10:40:38.275Z,18.00
2018-10-18T10:43:06.487Z,18.00
2018-10-18T10:45:34.630Z,18.00
2018-10-18T10:48:02.869Z,18.00
2018-10-18T10:50:30.983Z,18.10
2018-10-18T10:52:59.127Z,18.20
2018-10-18T10:55:27.257Z,18.30
2018-10-18T10:57:55.438Z,18.30
2018-10-18T11:01:28.212Z,18.40
2018-10-18T11:03:59.462Z,18.40
2018-10-18T11:06:27.599Z,18.40
2018-10-18T11:08:55.861Z,18.40
2018-10-18T11:11:24.342Z,18.40
2018-10-18T11:13:52.496Z,18.40
2018-10-18T11:16:20.624Z,18.40
2018-10-18T11:18:48.762Z,18.40
2018-10-18T11:21:18.015Z,18.40
2018-10-18T11:23:46.115Z,18.30
2018-10-18T11:26:14.429Z,18.20
2018-10-18T11:28:42.417Z,18.20
2018-10-18T11:31:10.561Z,18.20
2018-10-18T11:33:38.736Z,18.30
2018-10-18T11:36:06.976Z,18.20
2018-10-18T11:38:35.011Z,18.20
2018-10-18T11:41:03.202Z,18.10
2018-10-18T11:43:31.362Z,18.10
2018-10-18T11:45:59.536Z,18.00
2018-10-18T11:48:27.695Z,18.00
2018-10-18T11:50:55.848Z,17.90
2018-10-18T11:53:23.982Z,17.90
2018-10-18T11:55:52.158Z,17.90
2018-10-18T11:58:20.275Z,18.00
2018-10-18T12:00:48.470Z,18.10
2018-10-18T12:03:16.719Z,18.10
2018-10-18T12:05:44.900Z,18.10
2018-10-18T12:08:13.293Z,18.00
2018-10-18T12:10:41.201Z,17.90
2018-10-18T12:13:09.347Z,17.90
2018-10-18T12:15:37.565Z,17.80
2018-10-18T12:18:05.770Z,17.70
2018-10-18T12:20:33.942Z,17.70
2018-10-18T12:23:02.120Z,17.70
2018-10-18T12:25:30.270Z,17.80
2018-10-18T12:27:58.434Z,17.70
2018-10-18T12:30:26.624Z,17.70
2018-10-18T12:32:54.778Z,17.70
2018-10-18T12:35:22.940Z,17.60
2018-10-18T12:37:51.094Z,17.60
2018-10-18T12:40:19.384Z,17.70
2018-10-18T12:42:48.607Z,17.80
2018-10-18T12:45:16.797Z,17.90
2018-10-18T12:47:44.958Z,17.90
2018-10-18T12:50:13.205Z,17.90
2018-10-18T12:52:41.291Z,17.90
2018-10-18T12:55:09.484Z,17.80
2018-10-18T12:57:37.725Z,17.80
2018-10-18T13:00:07.542Z,17.80
2018-10-18T13:02:35.661Z,17.80
2018-10-18T13:05:04.028Z,17.80
2018-10-18T13:07:32.194Z,17.90
2018-10-18T13:10:00.366Z,17.80
2018-10-18T13:12:28.655Z,17.90
2018-10-18T13:14:56.737Z,17.80
2018-10-18T13:17:24.903Z,17.80
2018-10-18T13:19:53.086Z,17.80
2018-10-18T13:22:21.218Z,17.80
2018-10-18T13:24:49.359Z,17.80
2018-10-18T13:27:17.505Z,17.70
2018-10-18T13:29:45.655Z,17.70
2018-10-18T13:32:13.944Z,17.80
2018-10-18T13:34:42.087Z,17.80
2018-10-18T13:37:10.253Z,17.80
2018-10-18T13:39:38.394Z,17.80
2018-10-18T13:42:06.641Z,17.80
2018-10-18T13:44:34.721Z,17.80
2018-10-18T13:47:02.884Z,17.80
2018-10-18T13:49:31.065Z,17.90
2018-10-18T13:51:59.294Z,18.00
2018-10-18T13:54:27.454Z,18.10
2018-10-18T13:56:55.758Z,18.10
2018-10-18T13:59:35.652Z,18.20
2018-10-18T14:02:03.909Z,18.20
2018-10-18T14:04:31.909Z,18.20
2018-10-18T14:07:00.051Z,18.20
2018-10-18T14:09:28.229Z,18.20
2018-10-18T14:11:56.465Z,18.20
2018-10-18T14:14:24.642Z,18.20
2018-10-18T14:16:52.818Z,18.20
2018-10-18T14:19:20.994Z,18.20
2018-10-18T14:21:49.160Z,18.10
2018-10-18T14:24:17.327Z,18.10
2018-10-18T14:26:45.482Z,18.10
2018-10-18T14:29:13.675Z,18.20
2018-10-18T14:31:41.863Z,18.10
2018-10-18T14:34:10.256Z,18.10
2018-10-18T14:36:38.414Z,18.10
2018-10-18T14:39:07.770Z,18.10
2018-10-18T14:41:36.296Z,18.10
2018-10-18T14:44:04.692Z,18.10
2018-10-18T14:46:32.817Z,18.10
2018-10-18T14:49:01.015Z,18.10
2018-10-18T14:51:29.174Z,18.00
2018-10-18T14:53:57.352Z,18.00
2018-10-18T14:56:25.815Z,18.10
2018-10-18T14:58:53.971Z,18.10
2018-10-18T15:01:22.118Z,18.00
2018-10-18T15:03:50.274Z,18.00
2018-10-18T15:06:18.484Z,17.90
2018-10-18T15:08:46.649Z,17.80
2018-10-18T15:11:14.968Z,17.80
2018-10-18T15:13:43.040Z,17.90
2018-10-18T15:16:11.229Z,17.90
2018-10-18T15:18:39.418Z,17.80
2018-10-18T15:21:07.797Z,17.80
2018-10-18T15:23:35.967Z,17.80
2018-10-18T15:26:05.277Z,17.90
2018-10-18T15:28:33.430Z,17.80
2018-10-18T15:31:01.636Z,17.70
2018-10-18T15:33:29.815Z,17.80
2018-10-18T15:35:58.007Z,17.70
2018-10-18T15:38:26.340Z,17.80
2018-10-18T15:40:54.437Z,17.80
2018-10-18T15:43:22.585Z,17.80
2018-10-18T15:45:50.750Z,17.70
2018-10-18T15:48:19.087Z,17.70
2018-10-18T15:50:47.246Z,17.80
2018-10-18T15:53:15.469Z,17.80
2018-10-18T15:55:43.575Z,17.80
2018-10-18T15:58:11.755Z,17.80
2018-10-18T16:00:39.923Z,17.80
2018-10-18T16:03:08.147Z,17.80
2018-10-18T16:05:36.277Z,17.70
2018-10-18T16:08:04.679Z,17.70
2018-10-18T16:10:32.834Z,17.70
2018-10-18T16:13:01.283Z,17.70
2018-10-18T16:15:29.450Z,17.70
2018-10-18T16:17:57.767Z,17.70
2018-10-18T16:20:25.807Z,17.70
2018-10-18T16:22:54.026Z,17.60
2018-10-18T16:25:22.159Z,17.40
2018-10-18T16:27:50.325Z,17.10
2018-10-18T16:30:18.479Z,16.90
2018-10-18T16:32:46.663Z,16.80
2018-10-18T16:35:14.837Z,16.60
2018-10-18T16:37:42.972Z,16.40
2018-10-18T16:40:11.155Z,16.30
2018-10-18T16:42:39.354Z,16.20
2018-10-18T16:45:09.346Z,16.10
2018-10-18T16:47:37.549Z,16.00
2018-10-18T16:50:05.708Z,15.90
2018-10-18T16:52:33.900Z,15.90
2018-10-18T16:55:02.068Z,15.80
2018-10-18T16:57:30.295Z,15.80
2018-10-18T16:59:58.464Z,15.70
2018-10-18T17:02:26.591Z,15.70
2018-10-18T17:04:54.743Z,15.70
2018-10-18T17:07:22.905Z,15.70
2018-10-18T17:09:51.091Z,15.80
2018-10-18T17:12:19.377Z,15.90
2018-10-18T17:14:47.478Z,16.00
2018-10-18T17:17:15.641Z,16.00
2018-10-18T17:19:43.854Z,16.00
2018-10-18T17:22:12.050Z,15.90
2018-10-18T17:24:40.246Z,15.90
2018-10-18T17:27:08.527Z,15.90
2018-10-18T17:29:36.595Z,15.80
2018-10-18T17:32:04.833Z,15.90
2018-10-18T17:34:33.031Z,15.90
2018-10-18T17:37:01.200Z,15.90
2018-10-18T17:39:29.436Z,15.90
2018-10-18T17:41:57.735Z,16.00
2018-10-18T17:44:25.819Z,16.00
2018-10-18T17:46:53.990Z,16.00
2018-10-18T17:49:22.179Z,16.10
2018-10-18T17:51:50.368Z,16.00
2018-10-18T17:54:18.615Z,15.90
2018-10-18T17:56:46.710Z,15.90
2018-10-18T17:59:14.878Z,15.90
2018-10-18T18:01:43.202Z,15.80
2018-10-18T18:04:11.486Z,15.80
2018-10-18T18:06:39.757Z,15.80
2018-10-18T18:09:07.784Z,15.80
2018-10-18T18:11:35.987Z,15.70
2018-10-18T18:14:04.165Z,15.60
2018-10-18T18:16:32.512Z,15.60
2018-10-18T18:19:01.062Z,15.50
2018-10-18T18:21:29.229Z,15.60
2018-10-18T18:23:57.390Z,15.50
2018-10-18T18:26:32.602Z,15.50
2018-10-18T18:28:53.737Z,15.50
2018-10-18T18:31:21.975Z,15.50
2018-10-18T18:33:50.135Z,15.40
2018-10-18T18:36:18.366Z,15.40
2018-10-18T18:38:46.577Z,15.30
2018-10-18T18:41:14.805Z,15.20
2018-10-18T18:43:42.945Z,15.20
2018-10-18T18:46:11.109Z,15.20
2018-10-18T18:48:39.327Z,15.20
2018-10-18T18:51:07.600Z,15.20
2018-10-18T18:53:35.823Z,15.20
2018-10-18T18:56:04.103Z,15.10
2018-10-18T18:58:32.275Z,15.10
2018-10-18T19:01:00.492Z,15.10
2018-10-18T19:03:28.736Z,15.10
2018-10-18T19:05:56.889Z,15.00
2018-10-18T19:08:25.059Z,15.10
2018-10-18T19:10:53.258Z,15.10
2018-10-18T19:13:21.572Z,15.20
2018-10-18T19:15:49.703Z,15.20
2018-10-18T19:18:17.859Z,15.30
2018-10-18T19:20:46.015Z,15.30
2018-10-18T19:23:14.238Z,15.30
2018-10-18T19:25:42.359Z,15.30
2018-10-18T19:28:10.524Z,15.30
2018-10-18T19:30:38.662Z,15.30
2018-10-18T19:33:06.803Z,15.30
2018-10-18T19:35:34.971Z,15.20
2018-10-18T19:38:03.153Z,15.20
2018-10-18T19:40:31.295Z,15.20
2018-10-18T19:42:59.442Z,15.10
2018-10-18T19:45:27.669Z,15.20
2018-10-18T19:47:55.785Z,15.30
2018-10-18T19:50:23.985Z,15.30
2018-10-18T19:52:52.360Z,15.20
2018-10-18T19:55:20.469Z,15.30
2018-10-18T19:57:48.627Z,15.30
2018-10-18T20:00:16.829Z,15.30
2018-10-18T20:02:44.966Z,15.20
2018-10-18T20:05:13.124Z,15.10
2018-10-18T20:07:41.380Z,15.10
2018-10-18T20:10:09.878Z,15.00
2018-10-18T20:12:38.056Z,15.00
2018-10-18T20:15:06.547Z,15.00
2018-10-18T20:17:34.695Z,14.90
2018-10-18T20:20:03.288Z,14.90
2018-10-18T20:22:31.419Z,14.80
2018-10-18T20:24:59.714Z,14.80
2018-10-18T20:27:27.742Z,14.80
2018-10-18T20:29:55.936Z,14.70
2018-10-18T20:32:24.094Z,14.70
2018-10-18T20:34:52.213Z,14.70
2018-10-18T20:37:20.367Z,14.60
2018-10-18T20:39:48.592Z,14.60
2018-10-18T20:42:16.681Z,14.60
2018-10-18T20:44:44.851Z,14.60
2018-10-18T20:47:13.185Z,14.60
2018-10-18T20:49:41.362Z,14.60
2018-10-18T20:52:09.634Z,14.60
2018-10-18T20:54:37.794Z,14.60
2018-10-18T20:57:06.168Z,14.50
2018-10-18T20:59:34.397Z,14.50
2018-10-18T21:02:02.571Z,14.50
2018-10-18T21:04:30.730Z,14.60
2018-10-18T21:06:58.877Z,14.50
2018-10-18T21:09:27.039Z,14.50
2018-10-18T21:11:55.199Z,14.50
2018-10-18T21:14:23.378Z,14.50
2018-10-18T21:16:51.560Z,14.50
2018-10-18T21:19:19.711Z,14.40
2018-10-18T21:21:47.899Z,14.40
2018-10-18T21:24:16.042Z,14.40
2018-10-18T21:26:44.202Z,14.40
2018-10-18T21:29:12.529Z,14.30
2018-10-18T21:31:40.547Z,14.40
2018-10-18T21:34:08.731Z,14.40
2018-10-18T21:36:36.874Z,14.40
2018-10-18T21:39:06.518Z,14.40
2018-10-18T21:41:34.673Z,14.40
2018-10-18T21:44:02.870Z,14.30
2018-10-18T21:46:31.041Z,14.30
2018-10-18T21:48:59.267Z,14.30
2018-10-18T21:51:27.387Z,14.30
2018-10-18T21:53:55.555Z,14.30
2018-10-18T21:56:23.718Z,14.30
2018-10-18T21:58:51.901Z,14.30
2018-10-18T22:01:20.062Z,14.40
2018-10-18T22:03:48.230Z,14.30
2018-10-18T22:06:16.402Z,14.40
2018-10-18T22:08:44.590Z,14.40
2018-10-18T22:11:12.862Z,14.60
2018-10-18T22:13:40.927Z,14.60
2018-10-18T22:16:09.111Z,14.60
2018-10-18T22:18:37.271Z,14.60
2018-10-18T22:21:05.798Z,14.60
2018-10-18T22:23:33.966Z,14.60
2018-10-18T22:26:02.159Z,14.60
2018-10-18T22:28:30.323Z,14.50
2018-10-18T22:30:58.495Z,14.50
2018-10-18T22:33:26.692Z,14.50
2018-10-18T22:35:55.123Z,14.40
2018-10-18T22:38:23.298Z,14.40
2018-10-18T22:40:51.476Z,14.40
2018-10-18T22:43:19.638Z,14.40
2018-10-18T22:45:53.963Z,14.40
2018-10-18T22:48:22.118Z,14.40
2018-10-18T22:50:50.292Z,14.40
2018-10-18T22:53:18.460Z,14.40
2018-10-18T22:55:46.630Z,14.30
2018-10-18T22:58:14.791Z,14.30
2018-10-18T23:00:47.444Z,14.30
2018-10-18T23:03:16.381Z,14.20
2018-10-18T23:05:44.867Z,14.30
2018-10-18T23:08:13.314Z,14.30
2018-10-18T23:10:41.481Z,14.20
2018-10-18T23:13:09.783Z,14.10
2018-10-18T23:15:37.950Z,14.10
2018-10-18T23:18:06.534Z,14.00
2018-10-18T23:20:34.701Z,14.00
2018-10-18T23:23:02.943Z,13.90
2018-10-18T23:25:31.046Z,13.90
2018-10-18T23:27:59.215Z,13.80
2018-10-18T23:30:27.374Z,13.70
2018-10-18T23:32:55.715Z,13.70
2018-10-18T23:35:23.881Z,13.70
2018-10-18T23:37:52.078Z,13.70
2018-10-18T23:40:20.430Z,13.60
2018-10-18T23:42:48.611Z,13.60
2018-10-18T23:45:16.845Z,13.50
2018-10-18T23:47:44.947Z,13.40
2018-10-18T23:50:13.119Z,13.40
2018-10-18T23:52:41.294Z,13.40
2018-10-18T23:55:09.468Z,13.50
2018-10-18T23:57:37.640Z,13.40
